createdAt,value
2022-09-03T00:00:56.979Z,19.38
2022-09-03T00:03:38.389Z,19.23
2022-09-03T00:06:14.861Z,19.29
2022-09-03T00:09:06.050Z,19.28
2022-09-03T00:11:50.965Z,19.21
2022-09-03T00:14:33.797Z,19.19
2022-09-03T00:17:16.482Z,19.12
2022-09-03T00:20:18.890Z,19.20
2022-09-03T00:22:50.086Z,19.01
2022-09-03T00:25:40.804Z,19.12
2022-09-03T00:28:15.864Z,18.92
2022-09-03T00:30:45.661Z,19.06
2022-09-03T00:33:19.457Z,18.89
2022-09-03T00:36:05.035Z,18.89
2022-09-03T00:38:33.580Z,19.07
2022-09-03T00:41:34.315Z,19.10
2022-09-03T00:44:20.529Z,19.06
2022-09-03T00:47:11.082Z,18.99
2022-09-03T00:49:46.749Z,18.89
2022-09-03T00:52:38.219Z,18.68
2022-09-03T00:55:13.681Z,18.77
2022-09-03T00:57:48.228Z,18.79
2022-09-03T01:00:19.599Z,18.76
2022-09-03T01:03:10.733Z,18.59
2022-09-03T01:05:43.599Z,18.70
2022-09-03T01:08:32.223Z,18.53
2022-09-03T01:11:20.535Z,18.57
2022-09-03T01:14:08.856Z,18.63
2022-09-03T01:17:00.129Z,18.77
2022-09-03T01:19:56.319Z,18.66
2022-09-03T01:22:44.856Z,18.67
2022-09-03T01:25:53.486Z,18.48
2022-09-03T01:28:34.889Z,18.60
2022-09-03T01:31:26.810Z,18.62
2022-09-03T01:34:13.660Z,18.45
2022-09-03T01:36:46.195Z,18.48
2022-09-03T01:39:23.905Z,18.39
2022-09-03T01:42:21.262Z,18.43
2022-09-03T01:44:48.471Z,18.33
2022-09-03T01:47:51.687Z,18.23
2022-09-03T01:50:42.981Z,18.22
2022-09-03T01:53:18.637Z,18.18
2022-09-03T01:56:13.300Z,18.11
2022-09-03T01:58:43.131Z,18.10
2022-09-03T02:01:30.300Z,18.03
2022-09-03T02:04:00.037Z,17.87
2022-09-03T02:06:27.966Z,17.74
2022-09-03T02:08:54.479Z,17.78
2022-09-03T02:11:21.194Z,17.71
2022-09-03T02:13:52.795Z,17.51
2022-09-03T02:16:28.390Z,17.44
2022-09-03T02:19:01.326Z,17.54
2022-09-03T02:21:34.891Z,17.43
2022-09-03T02:24:03.419Z,17.24
2022-09-03T02:26:29.914Z,17.19
2022-09-03T02:28:57.882Z,17.28
2022-09-03T02:31:25.198Z,17.13
2022-09-03T02:33:51.997Z,17.15
2022-09-03T02:36:27.468Z,17.25
2022-09-03T02:38:54.222Z,17.34
2022-09-03T02:41:20.903Z,17.05
2022-09-03T02:43:53.721Z,17.02
2022-09-03T02:46:27.846Z,17.19
2022-09-03T02:48:55.082Z,16.99
2022-09-03T02:51:21.868Z,16.93
2022-09-03T02:53:48.401Z,16.91
2022-09-03T02:56:17.805Z,16.92
2022-09-03T02:58:44.405Z,16.88
2022-09-03T03:01:11.711Z,17.02
2022-09-03T03:03:44.681Z,16.95
2022-09-03T03:06:13.919Z,16.90
2022-09-03T03:08:40.517Z,16.75
2022-09-03T03:11:07.593Z,16.78
2022-09-03T03:13:34.428Z,16.78
2022-09-03T03:16:03.742Z,16.82
2022-09-03T03:18:30.343Z,16.89
2022-09-03T03:20:56.825Z,16.68
2022-09-03T03:23:23.497Z,16.74
2022-09-03T03:25:49.979Z,16.90
2022-09-03T03:28:18.934Z,16.71
2022-09-03T03:30:48.502Z,16.36
2022-09-03T03:33:14.988Z,16.45
2022-09-03T03:35:42.633Z,16.54
2022-09-03T03:38:09.140Z,16.67
2022-09-03T03:40:38.355Z,16.34
2022-09-03T03:43:04.866Z,16.40
2022-09-03T03:45:31.341Z,16.51
2022-09-03T03:48:02.055Z,16.60
2022-09-03T03:50:28.559Z,16.62
2022-09-03T03:52:55.110Z,16.55
2022-09-03T03:55:21.679Z,16.61
2022-09-03T03:57:48.271Z,16.36
2022-09-03T04:00:15.521Z,16.09
2022-09-03T04:02:42.262Z,16.13
2022-09-03T04:05:09.042Z,16.24
2022-09-03T04:07:35.952Z,16.35
2022-09-03T04:10:02.472Z,16.40
2022-09-03T04:12:28.950Z,16.49
2022-09-03T04:14:55.429Z,16.40
2022-09-03T04:17:25.110Z,16.24
2022-09-03T04:19:52.104Z,16.26
2022-09-03T04:22:19.598Z,16.28
2022-09-03T04:24:46.180Z,16.40
2022-09-03T04:27:12.644Z,16.23
2022-09-03T04:29:39.189Z,16.08
2022-09-03T04:32:26.369Z,16.19
2022-09-03T04:34:52.864Z,16.12
2022-09-03T04:37:20.248Z,16.08
2022-09-03T04:39:46.911Z,16.20
2022-09-03T04:42:13.581Z,16.20
2022-09-03T04:44:41.085Z,15.99
2022-09-03T04:47:07.628Z,16.13
2022-09-03T04:49:34.595Z,16.19
2022-09-03T04:52:01.491Z,16.11
2022-09-03T04:54:29.342Z,15.98
2022-09-03T04:56:56.548Z,15.96
2022-09-03T04:59:23.066Z,16.11
2022-09-03T05:01:49.740Z,16.05
2022-09-03T05:04:16.228Z,16.11
2022-09-03T05:06:43.371Z,16.00
2022-09-03T05:09:09.923Z,15.95
2022-09-03T05:11:36.814Z,16.15
2022-09-03T05:14:05.795Z,16.19
2022-09-03T05:16:32.376Z,16.10
2022-09-03T05:19:00.839Z,16.25
2022-09-03T05:21:28.721Z,16.33
2022-09-03T05:23:55.231Z,16.05
2022-09-03T05:26:27.385Z,16.17
2022-09-03T05:28:59.898Z,16.28
2022-09-03T05:31:28.806Z,16.22
2022-09-03T05:33:58.911Z,16.20
2022-09-03T05:36:28.525Z,16.24
2022-09-03T05:38:54.903Z,16.33
2022-09-03T05:41:22.386Z,16.25
2022-09-03T05:43:57.020Z,16.46
2022-09-03T05:46:32.069Z,16.19
2022-09-03T05:49:01.174Z,16.35
2022-09-03T05:51:28.510Z,16.47
2022-09-03T05:53:55.614Z,16.52
2022-09-03T05:56:24.272Z,16.58
2022-09-03T05:58:54.372Z,16.61
2022-09-03T06:01:26.425Z,16.69
2022-09-03T06:04:07.045Z,16.75
2022-09-03T06:06:36.614Z,16.82
2022-09-03T06:09:19.776Z,16.87
2022-09-03T06:11:47.052Z,16.76
2022-09-03T06:14:14.739Z,16.99
2022-09-03T06:16:43.625Z,16.87
2022-09-03T06:19:11.649Z,16.77
2022-09-03T06:21:42.954Z,17.00
2022-09-03T06:24:15.200Z,16.94
2022-09-03T06:26:42.995Z,17.09
2022-09-03T06:29:10.538Z,17.18
2022-09-03T06:31:37.724Z,17.07
2022-09-03T06:34:04.483Z,17.39
2022-09-03T06:36:31.057Z,17.35
2022-09-03T06:38:58.651Z,17.40
2022-09-03T06:41:32.339Z,17.53
2022-09-03T06:44:03.341Z,17.64
2022-09-03T06:46:35.131Z,17.51
2022-09-03T06:49:02.227Z,17.55
2022-09-03T06:51:30.667Z,17.55
2022-09-03T06:54:06.276Z,17.79
2022-09-03T06:56:38.839Z,17.86
2022-09-03T06:59:11.422Z,17.93
2022-09-03T07:01:40.893Z,17.90
2022-09-03T07:04:12.576Z,18.16
2022-09-03T07:06:40.827Z,18.42
2022-09-03T07:09:08.743Z,18.29
2022-09-03T07:11:36.640Z,18.45
2022-09-03T07:14:05.153Z,18.61
2022-09-03T07:16:37.697Z,18.74
2022-09-03T07:19:06.053Z,18.85
2022-09-03T07:21:36.733Z,18.93
2022-09-03T07:24:05.569Z,18.83
2022-09-03T07:26:35.826Z,19.07
2022-09-03T07:29:02.829Z,19.20
2022-09-03T07:31:35.093Z,19.44
2022-09-03T07:34:05.970Z,19.36
2022-09-03T07:36:49.057Z,19.51
2022-09-03T07:39:16.651Z,19.66
2022-09-03T07:41:45.704Z,19.53
2022-09-03T07:44:19.463Z,19.81
2022-09-03T07:46:47.807Z,19.83
2022-09-03T07:49:14.550Z,20.00
2022-09-03T07:51:41.112Z,19.97
2022-09-03T07:54:10.904Z,20.09
2022-09-03T07:56:39.264Z,20.00
2022-09-03T07:59:06.305Z,20.32
2022-09-03T08:01:33.977Z,20.34
2022-09-03T08:04:02.101Z,20.30
2022-09-03T08:06:30.432Z,20.27
2022-09-03T08:09:05.330Z,20.34
2022-09-03T08:11:36.032Z,20.70
2022-09-03T08:14:06.178Z,20.67
2022-09-03T08:16:35.823Z,20.62
2022-09-03T08:19:02.757Z,20.87
2022-09-03T08:21:29.259Z,20.92
2022-09-03T08:24:02.814Z,21.12
2022-09-03T08:26:34.655Z,21.14
2022-09-03T08:29:02.237Z,21.21
2022-09-03T08:31:29.976Z,21.13
2022-09-03T08:33:58.879Z,21.38
2022-09-03T08:36:30.085Z,21.53
2022-09-03T08:38:58.553Z,21.70
2022-09-03T08:41:37.721Z,21.71
2022-09-03T08:44:15.325Z,21.69
2022-09-03T08:47:19.023Z,21.91
2022-09-03T08:49:48.364Z,21.84
2022-09-03T08:52:33.705Z,21.56
2022-09-03T08:55:27.883Z,21.83
2022-09-03T08:58:16.308Z,21.70
2022-09-03T09:00:48.675Z,21.83
2022-09-03T09:03:15.112Z,21.95
2022-09-03T09:05:51.690Z,21.87
2022-09-03T09:08:35.164Z,22.23
2022-09-03T09:11:14.800Z,22.01
2022-09-03T09:13:47.345Z,22.22
2022-09-03T09:16:16.787Z,22.28
2022-09-03T09:19:04.964Z,22.47
2022-09-03T09:21:37.155Z,22.59
2022-09-03T09:24:12.904Z,22.64
2022-09-03T09:26:41.491Z,22.77
2022-09-03T09:29:10.724Z,22.95
2022-09-03T09:31:44.655Z,23.01
2022-09-03T09:34:12.247Z,22.86
2022-09-03T09:36:59.183Z,23.28
2022-09-03T09:39:25.794Z,23.35
2022-09-03T09:42:09.369Z,23.58
2022-09-03T09:44:37.683Z,23.56
2022-09-03T09:47:13.810Z,23.64
2022-09-03T09:49:47.061Z,23.83
2022-09-03T09:52:16.613Z,23.74
2022-09-03T09:54:48.092Z,23.74
2022-09-03T09:57:18.267Z,23.82
2022-09-03T09:59:46.205Z,23.49
2022-09-03T10:02:28.555Z,23.50
2022-09-03T10:05:19.159Z,23.85
2022-09-03T10:07:59.357Z,23.93
2022-09-03T10:10:28.957Z,24.10
2022-09-03T10:13:19.334Z,23.85
2022-09-03T10:16:10.891Z,24.06
2022-09-03T10:18:45.068Z,24.02
2022-09-03T10:21:31.504Z,23.89
2022-09-03T10:24:27.004Z,24.15
2022-09-03T10:26:53.719Z,24.28
2022-09-03T10:29:22.760Z,24.37
2022-09-03T10:32:22.900Z,24.25
2022-09-03T10:35:30.236Z,24.21
2022-09-03T10:38:24.373Z,24.61
2022-09-03T10:41:05.900Z,24.92
2022-09-03T10:43:38.494Z,24.95
2022-09-03T10:46:24.290Z,24.36
2022-09-03T10:49:15.874Z,24.79
2022-09-03T10:51:49.413Z,25.28
2022-09-03T10:54:32.496Z,24.86
2022-09-03T10:57:01.619Z,25.17
2022-09-03T11:00:09.625Z,25.23
2022-09-03T11:02:36.102Z,25.01
2022-09-03T11:05:09.225Z,25.34
2022-09-03T11:07:40.638Z,25.65
2022-09-03T11:10:18.770Z,25.33
2022-09-03T11:12:56.299Z,25.11
2022-09-03T11:15:36.108Z,25.87
2022-09-03T11:18:16.040Z,25.69
2022-09-03T11:20:44.093Z,26.05
2022-09-03T11:23:13.451Z,25.50
2022-09-03T11:26:03.399Z,26.01
2022-09-03T11:28:35.461Z,25.86
2022-09-03T11:31:17.785Z,25.60
2022-09-03T11:33:54.495Z,25.90
2022-09-03T11:36:30.476Z,25.69
2022-09-03T11:38:57.024Z,25.96
2022-09-03T11:41:28.841Z,25.66
2022-09-03T11:43:55.535Z,25.79
2022-09-03T11:46:22.266Z,26.15
2022-09-03T11:48:51.363Z,26.08
2022-09-03T11:51:38.244Z,25.82
2022-09-03T11:54:27.738Z,25.91
2022-09-03T11:57:13.625Z,25.78
2022-09-03T11:59:43.533Z,26.11
2022-09-03T12:02:33.567Z,26.12
2022-09-03T12:05:25.522Z,25.98
2022-09-03T12:08:10.818Z,26.05
2022-09-03T12:11:16.432Z,26.04
2022-09-03T12:13:50.902Z,26.14
2022-09-03T12:16:55.024Z,26.18
2022-09-03T12:19:32.196Z,26.34
2022-09-03T12:21:58.784Z,26.21
2022-09-03T12:24:34.658Z,26.09
2022-09-03T12:27:04.577Z,25.70
2022-09-03T12:29:31.819Z,25.85
2022-09-03T12:32:07.829Z,26.16
2022-09-03T12:38:23.996Z,25.88
2022-09-03T12:43:37.899Z,26.08
2022-09-03T12:46:13.007Z,25.74
2022-09-03T12:48:43.602Z,26.10
2022-09-03T12:53:58.171Z,26.08
2022-09-03T12:56:27.598Z,26.08
2022-09-03T12:58:59.761Z,25.89
2022-09-03T13:01:44.323Z,25.86
2022-09-03T13:04:28.400Z,25.92
2022-09-03T13:07:15.273Z,25.88
2022-09-03T13:09:58.033Z,25.99
2022-09-03T13:12:52.980Z,26.04
2022-09-03T13:15:26.196Z,25.99
2022-09-03T13:18:04.417Z,25.70
2022-09-03T13:20:49.963Z,25.95
2022-09-03T13:23:51.270Z,26.25
2022-09-03T13:26:31.678Z,26.11
2022-09-03T13:29:10.744Z,26.35
2022-09-03T13:31:47.231Z,26.34
2022-09-03T13:34:38.011Z,26.14
2022-09-03T13:37:27.757Z,25.96
2022-09-03T13:40:12.454Z,25.94
2022-09-03T13:42:47.705Z,26.26
2022-09-03T13:45:44.044Z,26.35
2022-09-03T13:48:51.456Z,26.13
2022-09-03T13:51:49.669Z,26.27
2022-09-03T13:54:48.705Z,26.48
2022-09-03T13:58:02.032Z,26.76
2022-09-03T14:00:45.312Z,26.26
2022-09-03T14:03:49.576Z,26.50
2022-09-03T14:06:56.394Z,26.48
2022-09-03T14:10:23.087Z,26.91
2022-09-03T14:13:14.324Z,26.92
2022-09-03T14:15:53.182Z,26.94
2022-09-03T14:18:51.236Z,26.57
2022-09-03T14:21:27.891Z,26.50
2022-09-03T14:24:21.936Z,26.83
2022-09-03T14:27:10.777Z,27.09
2022-09-03T14:33:14.254Z,26.87
2022-09-03T14:39:56.439Z,26.43
2022-09-03T14:42:29.277Z,26.32
2022-09-03T14:45:28.936Z,26.33
2022-09-03T14:48:35.826Z,26.34
2022-09-03T14:51:38.803Z,26.02
2022-09-03T14:54:32.848Z,26.18
2022-09-03T14:57:27.257Z,26.49
2022-09-03T15:00:19.759Z,26.43
2022-09-03T15:03:17.467Z,26.42
2022-09-03T15:06:20.435Z,26.50
2022-09-03T15:09:45.457Z,26.57
2022-09-03T15:12:47.764Z,26.77
2022-09-03T15:15:54.923Z,26.80
2022-09-03T15:18:47.967Z,26.65
2022-09-03T15:22:10.015Z,26.42
2022-09-03T15:25:04.930Z,26.86
2022-09-03T15:28:05.234Z,27.00
2022-09-03T15:31:02.228Z,27.26
2022-09-03T15:33:42.385Z,27.09
2022-09-03T15:36:22.604Z,27.09
2022-09-03T15:39:10.534Z,27.24
2022-09-03T15:42:15.163Z,26.85
2022-09-03T15:45:11.048Z,26.72
2022-09-03T15:47:56.260Z,26.37
2022-09-03T15:50:49.727Z,26.59
2022-09-03T15:53:34.387Z,26.72
2022-09-03T15:56:47.463Z,26.42
2022-09-03T15:59:35.966Z,26.42
2022-09-03T16:02:50.272Z,26.47
2022-09-03T16:06:07.551Z,26.41
2022-09-03T16:09:04.707Z,26.41
2022-09-03T16:12:08.410Z,25.93
2022-09-03T16:15:17.226Z,25.87
2022-09-03T16:18:16.362Z,25.97
2022-09-03T16:21:05.819Z,26.04
2022-09-03T16:23:39.625Z,26.03
2022-09-03T16:26:36.896Z,25.55
2022-09-03T16:29:30.651Z,25.53
2022-09-03T16:32:02.496Z,25.44
2022-09-03T16:35:23.062Z,25.54
2022-09-03T16:38:19.621Z,25.63
2022-09-03T16:40:56.655Z,25.64
2022-09-03T16:43:52.823Z,25.74
2022-09-03T16:46:53.653Z,25.74
2022-09-03T16:49:47.685Z,25.92
2022-09-03T16:52:38.538Z,25.45
2022-09-03T16:55:22.735Z,25.52
2022-09-03T16:58:02.232Z,25.53
2022-09-03T17:01:06.839Z,25.40
2022-09-03T17:04:12.523Z,25.52
2022-09-03T17:07:19.506Z,25.63
2022-09-03T17:10:19.697Z,25.34
2022-09-03T17:13:16.135Z,25.51
2022-09-03T17:16:24.430Z,25.44
2022-09-03T17:19:09.091Z,25.59
2022-09-03T17:22:26.007Z,25.38
2022-09-03T17:25:08.680Z,25.19
2022-09-03T17:28:24.789Z,25.27
2022-09-03T17:31:18.380Z,25.14
2022-09-03T17:34:20.689Z,25.15
2022-09-03T17:37:33.099Z,24.74
2022-09-03T17:40:33.920Z,24.57
2022-09-03T17:43:33.179Z,24.72
2022-09-03T17:46:24.197Z,24.71
2022-09-03T17:48:55.654Z,24.73
2022-09-03T17:51:22.093Z,24.69
2022-09-03T17:53:51.418Z,24.71
2022-09-03T17:56:25.014Z,24.69
2022-09-03T17:59:08.059Z,24.68
2022-09-03T18:01:38.495Z,24.62
2022-09-03T18:04:27.757Z,24.64
2022-09-03T18:07:00.908Z,24.55
2022-09-03T18:09:39.524Z,24.45
2022-09-03T18:12:32.316Z,24.38
2022-09-03T18:15:25.550Z,24.32
2022-09-03T18:17:58.214Z,24.21
2022-09-03T18:20:45.921Z,24.24
2022-09-03T18:23:44.680Z,24.24
2022-09-03T18:26:38.147Z,24.11
2022-09-03T18:29:34.155Z,23.91
2022-09-03T18:32:20.572Z,23.78
2022-09-03T18:35:06.388Z,23.70
2022-09-03T18:37:51.184Z,23.61
2022-09-03T18:40:44.113Z,23.64
2022-09-03T18:43:50.524Z,23.60
2022-09-03T18:50:14.677Z,23.57
2022-09-03T18:53:21.300Z,23.52
2022-09-03T18:56:35.571Z,23.44
2022-09-03T18:59:32.211Z,23.29
2022-09-03T19:02:23.117Z,23.26
2022-09-03T19:05:29.988Z,23.22
2022-09-03T19:08:25.488Z,23.15
2022-09-03T19:11:18.256Z,23.08
2022-09-03T19:14:04.690Z,22.96
2022-09-03T19:16:59.095Z,22.84
2022-09-03T19:20:10.245Z,22.74
2022-09-03T19:22:57.504Z,22.60
2022-09-03T19:25:45.026Z,22.58
2022-09-03T19:28:36.063Z,22.48
2022-09-03T19:31:43.058Z,22.45
2022-09-03T19:34:36.401Z,22.40
2022-09-03T19:37:24.530Z,22.29
2022-09-03T19:40:40.615Z,22.29
2022-09-03T19:43:55.865Z,22.22
2022-09-03T19:46:55.348Z,22.14
2022-09-03T19:49:40.394Z,22.10
2022-09-03T19:52:40.906Z,22.08
2022-09-03T19:55:27.334Z,22.08
2022-09-03T19:58:41.523Z,21.94
2022-09-03T20:01:26.078Z,21.82
2022-09-03T20:04:11.528Z,21.81
2022-09-03T20:06:57.409Z,21.62
2022-09-03T20:09:50.812Z,21.68
2022-09-03T20:12:21.062Z,21.56
2022-09-03T20:14:47.693Z,21.57
2022-09-03T20:17:32.580Z,21.65
2022-09-03T20:20:25.151Z,21.58
2022-09-03T20:23:30.234Z,21.49
2022-09-03T20:26:31.221Z,21.44
2022-09-03T20:29:15.699Z,21.40
2022-09-03T20:31:54.019Z,21.31
2022-09-03T20:34:20.398Z,21.29
2022-09-03T20:37:11.798Z,21.29
2022-09-03T20:39:56.811Z,21.30
2022-09-03T20:43:00.963Z,21.27
2022-09-03T20:45:46.343Z,21.12
2022-09-03T20:48:39.797Z,21.14
2022-09-03T20:51:28.141Z,21.12
2022-09-03T20:54:03.734Z,21.13
2022-09-03T20:56:40.393Z,21.14
2022-09-03T20:59:12.655Z,21.07
2022-09-03T21:01:54.251Z,21.06
2022-09-03T21:04:42.839Z,21.04
2022-09-03T21:07:21.061Z,20.94
2022-09-03T21:10:01.851Z,20.89
2022-09-03T21:12:46.393Z,20.68
2022-09-03T21:15:13.298Z,20.73
2022-09-03T21:17:51.936Z,20.55
2022-09-03T21:20:45.994Z,20.46
2022-09-03T21:23:29.805Z,20.46
2022-09-03T21:26:13.828Z,20.49
2022-09-03T21:28:45.191Z,20.48
2022-09-03T21:31:18.695Z,20.50
2022-09-03T21:33:55.631Z,20.41
2022-09-03T21:36:34.272Z,20.39
2022-09-03T21:39:13.665Z,20.26
2022-09-03T21:41:44.289Z,20.29
2022-09-03T21:44:39.998Z,20.18
2022-09-03T21:47:10.561Z,20.17
2022-09-03T21:49:51.160Z,20.29
2022-09-03T21:52:23.181Z,20.28
2022-09-03T21:54:51.919Z,20.21
2022-09-03T21:57:25.083Z,20.06
2022-09-03T22:00:18.925Z,20.19
2022-09-03T22:02:46.961Z,20.17
2022-09-03T22:05:15.031Z,20.16
2022-09-03T22:07:53.841Z,20.08
2022-09-03T22:10:23.285Z,20.01
2022-09-03T22:13:00.874Z,19.98
2022-09-03T22:15:28.398Z,20.03
2022-09-03T22:18:15.360Z,19.99
2022-09-03T22:20:53.512Z,19.97
2022-09-03T22:23:30.878Z,19.94
2022-09-03T22:26:08.948Z,19.89
2022-09-03T22:28:38.321Z,19.81
2022-09-03T22:31:17.251Z,19.82
2022-09-03T22:34:19.999Z,19.84
2022-09-03T22:36:52.968Z,19.67
2022-09-03T22:39:39.616Z,19.76
2022-09-03T22:42:27.597Z,19.70
2022-09-03T22:45:09.239Z,19.67
2022-09-03T22:48:01.830Z,19.74
2022-09-03T22:50:36.746Z,19.63
2022-09-03T22:53:21.663Z,19.65
2022-09-03T22:56:12.610Z,19.52
2022-09-03T22:58:55.757Z,19.42
2022-09-03T23:01:30.774Z,19.44
2022-09-03T23:04:07.087Z,19.37
2022-09-03T23:06:38.376Z,19.27
2022-09-03T23:09:14.129Z,19.33
2022-09-03T23:12:02.765Z,19.32
2022-09-03T23:14:36.715Z,19.33
2022-09-03T23:17:09.029Z,19.30
2022-09-03T23:19:43.714Z,19.31
2022-09-03T23:22:21.666Z,19.29
2022-09-03T23:24:55.566Z,19.24
2022-09-03T23:27:54.311Z,19.25
2022-09-03T23:30:21.272Z,19.15
2022-09-03T23:32:53.382Z,19.17
2022-09-03T23:35:21.379Z,19.09
2022-09-03T23:37:54.323Z,19.17
2022-09-03T23:40:23.310Z,19.12
2022-09-03T23:42:49.741Z,19.02
2022-09-03T23:45:51.156Z,19.12
2022-09-03T23:48:39.582Z,19.17
2022-09-03T23:51:11.940Z,19.11
2022-09-03T23:53:59.658Z,19.13
2022-09-03T23:56:45.494Z,19.06
2022-09-03T23:59:50.971Z,19.05
